Time;durP1;ratioP1;P1;durP2;ratioP2;P2;SDS_P1;SDS_P2;PMS_P1;PMS_P2;Temp;Humidity;BMP_temperature;BMP_pressure;BME280_temperature;BME280_humidity;BME280_pressure;Samples;Min_cycle;Max_cycle;Signal;HPM_P1;HPM_P2
2022/04/12 00:00:11;;;;;;;4.80;4.27;;;8.60;80.80;;;;;;6323290;28;20468;-61
2022/04/12 00:03:14;;;;;;;5.17;4.77;;;8.50;80.40;;;;;;6323991;28;20473;-60
2022/04/12 00:06:17;;;;;;;4.60;4.20;;;8.60;81.40;;;;;;6323953;28;20464;-61
2022/04/12 00:09:20;;;;;;;4.70;4.30;;;8.50;81.20;;;;;;6325761;28;20480;-61
2022/04/12 00:12:25;;;;;;;5.40;4.90;;;8.50;80.20;;;;;;6325606;28;20472;-61
2022/04/12 00:15:28;;;;;;;6.00;5.17;;;8.40;79.90;;;;;;6334369;28;20978;-61
2022/04/12 00:21:52;;;;;;;6.33;5.43;;;8.20;80.40;;;;;;6331033;28;20464;-61
2022/04/12 00:24:55;;;;;;;6.53;4.70;;;8.10;81.30;;;;;;6330799;28;20476;-61
2022/04/12 00:28:00;;;;;;;5.50;4.93;;;8.00;81.70;;;;;;6329878;28;20472;-61
2022/04/12 00:31:04;;;;;;;5.63;5.00;;;8.10;82.40;;;;;;6330831;28;20479;-62
2022/04/12 00:34:07;;;;;;;7.13;5.70;;;8.00;82.30;;;;;;6328648;28;20542;-61
2022/04/12 00:37:10;;;;;;;6.23;5.70;;;8.00;82.30;;;;;;6328066;28;20499;-61
2022/04/12 00:40:14;;;;;;;6.60;4.57;;;8.00;82.30;;;;;;6328201;28;20803;-61
2022/04/12 00:43:20;;;;;;;6.47;5.07;;;7.90;82.40;;;;;;6325944;28;20801;-61
2022/04/12 00:46:23;;;;;;;5.10;4.60;;;8.00;82.90;;;;;;6303931;28;20481;-61
2022/04/12 00:49:26;;;;;;;5.50;4.97;;;7.90;82.90;;;;;;6303622;28;20477;-61
2022/04/12 00:52:29;;;;;;;4.93;4.33;;;7.80;83.10;;;;;;6303698;28;20492;-61
2022/04/12 00:55:32;;;;;;;5.57;4.50;;;7.80;83.30;;;;;;6303785;28;20612;-61
2022/04/12 00:58:37;;;;;;;6.40;4.73;;;7.80;83.60;;;;;;6303467;28;20802;-61
2022/04/12 01:01:41;;;;;;;5.53;5.03;;;7.80;83.60;;;;;;6303449;28;20469;-61
2022/04/12 01:04:45;;;;;;;10.13;5.50;;;7.80;83.80;;;;;;6303278;28;20552;-61
2022/04/12 01:07:48;;;;;;;5.93;5.33;;;7.80;83.80;;;;;;6303168;28;20488;-61
2022/04/12 01:10:52;;;;;;;6.30;5.33;;;7.70;84.40;;;;;;6303407;28;20511;-61
2022/04/12 01:13:57;;;;;;;5.60;4.97;;;7.60;84.90;;;;;;6303043;28;20473;-61
2022/04/12 01:17:03;;;;;;;6.30;4.57;;;7.60;85.10;;;;;;6293486;28;20477;-61
2022/04/12 01:20:08;;;;;;;5.10;4.60;;;7.60;85.20;;;;;;6303041;28;20512;-61
2022/04/12 01:23:16;;;;;;;5.20;4.70;;;7.50;85.50;;;;;;6302067;28;20495;-62
2022/04/12 01:26:20;;;;;;;5.07;4.67;;;7.50;85.60;;;;;;6302783;28;20481;-61
2022/04/12 01:29:24;;;;;;;5.47;4.97;;;7.50;85.80;;;;;;6302840;28;20450;-61
2022/04/12 01:32:27;;;;;;;5.57;4.63;;;7.40;86.00;;;;;;6303058;28;20475;-62
2022/04/12 01:35:30;;;;;;;5.43;4.80;;;7.50;86.00;;;;;;6302635;28;20437;-62
2022/04/12 01:38:33;;;;;;;6.87;4.67;;;7.40;85.90;;;;;;6302704;28;20832;-61
2022/04/12 01:41:38;;;;;;;5.83;4.60;;;7.40;86.30;;;;;;6302787;28;20437;-62
2022/04/12 01:44:41;;;;;;;5.93;5.43;;;7.40;86.40;;;;;;6302577;28;20465;-62
2022/04/12 01:47:44;;;;;;;6.80;5.63;;;7.40;86.80;;;;;;6302655;28;20771;-61
2022/04/12 01:50:48;;;;;;;4.93;4.43;;;7.30;86.70;;;;;;6302544;28;20472;-62
2022/04/12 01:53:51;;;;;;;10.23;5.20;;;7.20;87.40;;;;;;6302466;28;20466;-62
2022/04/12 01:56:55;;;;;;;5.80;5.10;;;7.10;88.10;;;;;;6303126;28;20469;-61
2022/04/12 01:59:59;;;;;;;5.90;4.47;;;7.10;88.90;;;;;;6303689;28;20465;-62
2022/04/12 02:03:02;;;;;;;5.23;4.73;;;7.00;89.50;;;;;;6301850;28;20964;-60
2022/04/12 02:06:06;;;;;;;8.70;4.57;;;7.00;89.90;;;;;;6302173;28;20469;-61
2022/04/12 02:09:09;;;;;;;5.50;4.63;;;7.10;90.00;;;;;;6301876;28;20465;-60
2022/04/12 02:12:13;;;;;;;5.13;4.27;;;7.10;90.00;;;;;;6301638;28;20965;-61
2022/04/12 02:15:17;;;;;;;5.57;5.07;;;7.20;90.00;;;;;;6301748;28;20476;-60
2022/04/12 02:18:20;;;;;;;4.80;4.40;;;7.10;89.90;;;;;;6292311;28;20473;-60
2022/04/12 02:21:23;;;;;;;5.73;5.20;;;7.10;89.80;;;;;;6301859;28;20484;-60
2022/04/12 02:24:26;;;;;;;4.63;4.17;;;7.10;89.80;;;;;;6301425;28;20477;-61
2022/04/12 02:27:31;;;;;;;4.67;4.23;;;7.10;89.80;;;;;;6301790;28;20468;-60
2022/04/12 02:30:34;;;;;;;4.43;4.03;;;7.00;89.80;;;;;;6301274;28;20488;-61
2022/04/12 02:33:37;;;;;;;6.37;4.57;;;7.00;89.80;;;;;;6300307;28;20481;-61
2022/04/12 02:36:40;;;;;;;5.93;4.37;;;7.00;89.80;;;;;;6301362;28;20522;-61
2022/04/12 02:39:43;;;;;;;4.60;4.20;;;6.90;90.00;;;;;;6301422;28;20474;-61
2022/04/12 02:42:47;;;;;;;4.10;3.80;;;6.90;90.10;;;;;;6301019;28;20474;-62
2022/04/12 02:45:51;;;;;;;4.77;4.37;;;6.90;90.10;;;;;;6301350;28;20469;-60
2022/04/12 02:48:54;;;;;;;4.10;3.80;;;6.90;90.30;;;;;;6301219;28;20469;-60
2022/04/12 02:51:57;;;;;;;6.80;4.30;;;6.80;90.20;;;;;;6301102;28;20484;-61
2022/04/12 02:55:01;;;;;;;4.87;4.37;;;6.80;90.20;;;;;;6300489;28;20474;-61
2022/04/12 02:58:05;;;;;;;5.77;5.27;;;6.80;90.10;;;;;;6300723;28;20941;-61
2022/04/12 03:01:08;;;;;;;4.80;4.40;;;6.70;90.20;;;;;;6300196;28;20809;-61
2022/04/12 03:04:12;;;;;;;4.67;4.23;;;6.70;90.40;;;;;;6300546;28;20847;-61
2022/04/12 03:07:15;;;;;;;4.10;3.80;;;6.70;90.40;;;;;;6300523;28;20972;-61
2022/04/12 03:10:18;;;;;;;4.97;4.20;;;6.70;90.40;;;;;;6300194;28;20973;-61
2022/04/12 03:13:23;;;;;;;5.00;4.60;;;6.60;90.50;;;;;;6300165;28;20793;-60
2022/04/12 03:16:26;;;;;;;5.97;5.30;;;6.60;90.70;;;;;;6300395;28;20477;-60
2022/04/12 03:19:29;;;;;;;6.70;4.20;;;6.60;90.90;;;;;;6300426;28;20465;-60
2022/04/12 03:22:32;;;;;;;5.70;5.13;;;6.60;91.00;;;;;;6295159;28;20980;-61
2022/04/12 03:25:36;;;;;;;5.17;4.77;;;6.60;90.90;;;;;;6300204;28;20774;-60
2022/04/12 03:28:40;;;;;;;5.03;4.57;;;6.50;91.00;;;;;;6300044;28;20478;-60
2022/04/12 03:31:44;;;;;;;5.43;4.37;;;6.50;91.10;;;;;;6300039;28;20477;-60
2022/04/12 03:34:47;;;;;;;5.67;5.17;;;6.50;91.10;;;;;;6300059;28;20473;-60
2022/04/12 03:37:50;;;;;;;6.33;4.57;;;6.50;91.10;;;;;;6300214;28;20474;-60
2022/04/12 03:40:53;;;;;;;6.30;5.03;;;6.50;91.10;;;;;;6299749;28;20473;-60
2022/04/12 03:43:57;;;;;;;7.40;5.03;;;6.50;91.10;;;;;;6299857;28;20481;-61
2022/04/12 03:47:01;;;;;;;5.90;4.70;;;6.50;91.10;;;;;;6299410;28;20486;-61
2022/04/12 03:50:04;;;;;;;5.20;4.50;;;6.40;91.10;;;;;;6299806;28;20945;-61
2022/04/12 03:53:07;;;;;;;12.53;4.93;;;6.40;91.30;;;;;;6299523;28;20477;-62
2022/04/12 03:56:10;;;;;;;6.33;4.90;;;6.40;91.40;;;;;;6299712;28;20473;-61
2022/04/12 03:59:14;;;;;;;5.57;4.87;;;6.40;91.40;;;;;;6299440;28;20476;-61
2022/04/12 04:02:17;;;;;;;6.23;5.63;;;6.30;91.60;;;;;;6299515;28;20983;-61
2022/04/12 04:05:21;;;;;;;6.07;5.00;;;6.30;92.00;;;;;;6299648;28;20496;-61
2022/04/12 04:08:24;;;;;;;7.80;5.10;;;6.20;91.70;;;;;;6299347;28;20476;-62
2022/04/12 04:11:27;;;;;;;8.97;5.23;;;6.10;91.90;;;;;;6299801;28;20780;-61
2022/04/12 04:14:33;;;;;;;5.37;4.87;;;6.10;92.20;;;;;;6299573;28;20548;-60
2022/04/12 04:17:36;;;;;;;8.07;5.30;;;6.10;92.30;;;;;;6299544;28;20437;-60
2022/04/12 04:20:39;;;;;;;5.47;5.00;;;6.10;92.30;;;;;;6299226;28;20461;-62
2022/04/12 04:23:42;;;;;;;5.90;5.40;;;6.10;92.40;;;;;;6299350;28;20493;-61
2022/04/12 04:26:48;;;;;;;5.43;4.63;;;6.10;92.60;;;;;;6290079;28;20481;-61
2022/04/12 04:29:52;;;;;;;6.47;5.87;;;6.20;92.50;;;;;;6299636;28;20469;-60
2022/04/12 04:32:56;;;;;;;6.30;5.03;;;6.10;92.50;;;;;;6299521;28;20479;-60
2022/04/12 04:35:59;;;;;;;7.13;5.27;;;6.10;92.60;;;;;;6298999;28;20799;-61
2022/04/12 04:39:02;;;;;;;6.33;5.23;;;6.20;92.70;;;;;;6299327;28;20484;-60
2022/04/12 04:42:06;;;;;;;5.73;4.67;;;6.10;92.70;;;;;;6298906;28;20949;-61
2022/04/12 04:45:11;;;;;;;5.43;4.93;;;6.20;92.80;;;;;;6299244;28;20469;-60
2022/04/12 04:48:14;;;;;;;8.53;5.10;;;6.10;92.90;;;;;;6299217;28;20473;-61
2022/04/12 04:51:17;;;;;;;6.90;5.80;;;6.10;93.10;;;;;;6299147;28;20477;-60
2022/04/12 04:54:20;;;;;;;5.77;5.30;;;6.20;93.20;;;;;;6298695;28;20488;-61
2022/04/12 04:57:23;;;;;;;5.37;4.87;;;6.30;93.20;;;;;;6301125;28;20544;-60
2022/04/12 05:00:29;;;;;;;5.47;4.90;;;6.40;93.00;;;;;;6303314;28;20485;-61
2022/04/12 05:03:33;;;;;;;5.83;5.20;;;6.50;92.70;;;;;;6303491;28;20484;-61
2022/04/12 05:06:36;;;;;;;5.70;5.13;;;6.50;92.50;;;;;;6303597;28;20542;-61
2022/04/12 05:09:39;;;;;;;7.43;5.20;;;6.60;92.30;;;;;;6303271;28;20469;-60
2022/04/12 05:12:42;;;;;;;6.50;5.37;;;6.70;92.20;;;;;;6303427;28;20476;-61
2022/04/12 05:15:47;;;;;;;5.47;4.87;;;6.70;92.10;;;;;;6303458;28;20477;-61
2022/04/12 05:18:51;;;;;;;5.87;5.37;;;6.80;92.00;;;;;;6303091;28;20556;-62
2022/04/12 05:21:54;;;;;;;6.87;5.20;;;6.90;91.80;;;;;;6302678;28;20480;-62
2022/04/12 05:24:57;;;;;;;6.63;5.47;;;7.00;91.80;;;;;;6303047;28;20965;-62
2022/04/12 05:28:00;;;;;;;7.50;5.50;;;7.10;91.60;;;;;;6302408;28;20480;-62
2022/04/12 05:31:05;;;;;;;6.97;5.13;;;7.20;91.50;;;;;;6293835;28;20766;-62
2022/04/12 05:34:08;;;;;;;5.80;5.20;;;7.40;91.50;;;;;;6302328;28;21001;-62
2022/04/12 05:37:12;;;;;;;9.43;5.60;;;7.60;91.30;;;;;;6302857;28;20480;-62
2022/04/12 05:40:18;;;;;;;10.50;5.87;;;7.80;91.00;;;;;;6304454;28;20808;-61
2022/04/12 05:43:21;;;;;;;5.83;4.70;;;7.90;90.70;;;;;;6305942;28;20545;-61
2022/04/12 05:46:26;;;;;;;4.50;4.10;;;8.10;90.30;;;;;;6303654;28;20480;-61
2022/04/12 05:49:29;;;;;;;6.37;5.53;;;8.30;90.00;;;;;;6304297;28;20488;-61
2022/04/12 05:52:32;;;;;;;5.13;4.50;;;8.50;89.90;;;;;;6305191;28;21005;-62
2022/04/12 05:55:36;;;;;;;5.40;4.97;;;8.80;88.80;;;;;;6303658;28;20564;-61
2022/04/12 05:58:40;;;;;;;13.63;5.13;;;9.20;88.20;;;;;;6303867;28;20465;-61
2022/04/12 06:01:45;;;;;;;6.00;4.80;;;10.00;85.90;;;;;;6303940;28;20474;-60
2022/04/12 06:04:48;;;;;;;4.63;4.23;;;11.10;82.10;;;;;;6302293;28;20470;-61
2022/04/12 06:07:51;;;;;;;6.00;5.40;;;12.40;77.00;;;;;;6302075;28;20466;-61
2022/04/12 06:10:55;;;;;;;6.30;4.30;;;13.00;72.00;;;;;;6302101;28;20821;-61
2022/04/12 06:13:58;;;;;;;5.90;4.60;;;13.10;70.20;;;;;;6301302;28;20474;-61
2022/04/12 06:17:03;;;;;;;7.90;5.00;;;13.40;68.40;;;;;;6301871;28;20473;-61
2022/04/12 06:20:09;;;;;;;7.03;5.30;;;13.50;66.50;;;;;;6301659;28;20477;-61
2022/04/12 06:23:12;;;;;;;6.97;5.20;;;14.10;65.10;;;;;;6301145;28;20478;-61
2022/04/12 06:26:15;;;;;;;5.70;5.07;;;15.50;62.80;;;;;;6301159;28;20953;-61
2022/04/12 06:29:18;;;;;;;5.93;4.20;;;16.60;57.40;;;;;;6301498;28;20469;-61
2022/04/12 06:32:22;;;;;;;4.67;4.27;;;17.60;53.80;;;;;;6305571;28;20468;-62
2022/04/12 06:35:25;;;;;;;5.10;4.60;;;18.80;50.40;;;;;;6322560;28;20483;-62
2022/04/12 06:38:29;;;;;;;4.53;4.07;;;19.60;47.10;;;;;;6325983;28;20433;-62
2022/04/12 06:41:32;;;;;;;6.87;4.10;;;20.10;44.30;;;;;;6326428;28;20198;-62
2022/04/12 06:44:37;;;;;;;7.63;5.47;;;21.20;41.80;;;;;;6326123;28;20222;-62
2022/04/12 06:47:42;;;;;;;5.83;5.10;;;22.10;39.30;;;;;;6326326;28;20221;-62
2022/04/12 06:50:45;;;;;;;6.03;5.53;;;22.30;37.70;;;;;;6326328;28;20219;-61
2022/04/12 06:53:50;;;;;;;6.70;5.60;;;22.70;36.90;;;;;;6326122;28;20230;-61
2022/04/12 06:56:56;;;;;;;6.13;5.63;;;23.00;36.30;;;;;;6325599;28;20218;-61
2022/04/12 06:59:59;;;;;;;7.27;6.57;;;23.70;34.80;;;;;;6324981;28;20674;-61
2022/04/12 07:03:04;;;;;;;5.80;5.20;;;24.10;33.60;;;;;;6324768;28;20245;-62
2022/04/12 07:06:07;;;;;;;5.83;5.43;;;24.10;32.60;;;;;;6324935;28;20803;-62
2022/04/12 07:09:18;;;;;;;7.90;5.70;;;24.40;32.40;;;;;;6324886;28;20233;-62
2022/04/12 07:12:21;;;;;;;6.37;5.77;;;25.30;31.70;;;;;;6325009;28;20230;-62
2022/04/12 07:15:24;;;;;;;6.20;5.60;;;26.60;30.00;;;;;;6325606;28;20230;-62
2022/04/12 07:18:29;;;;;;;7.00;6.20;;;27.50;28.90;;;;;;6325353;28;20228;-62
2022/04/12 07:21:32;;;;;;;5.93;5.53;;;28.50;27.60;;;;;;6324106;28;20252;-63
2022/04/12 07:24:35;;;;;;;7.77;6.17;;;29.10;26.40;;;;;;6323688;28;20230;-62
2022/04/12 07:27:39;;;;;;;6.33;5.73;;;29.70;25.50;;;;;;6324854;28;20237;-62
2022/04/12 07:30:42;;;;;;;6.20;5.70;;;30.20;24.90;;;;;;6325210;28;20225;-62
2022/04/12 07:33:55;;;;;;;7.00;6.30;;;30.80;24.20;;;;;;6324155;28;20235;-62
2022/04/12 07:36:58;;;;;;;5.77;5.27;;;31.70;23.30;;;;;;6323509;28;20697;-62
2022/04/12 07:40:02;;;;;;;7.40;5.22;;;32.20;22.80;;;;;;6313103;28;20234;-63
2022/04/12 07:43:05;;;;;;;6.82;6.15;;;32.80;22.30;;;;;;6323124;28;20253;-62
2022/04/12 07:46:08;;;;;;;6.32;5.82;;;33.20;21.80;;;;;;6322990;28;20709;-63
2022/04/12 07:49:26;;;;;;;6.18;5.70;;;33.90;21.30;;;;;;6324153;28;20252;-62
2022/04/12 07:52:29;;;;;;;6.20;5.65;;;34.90;20.60;;;;;;6323998;28;20243;-63
2022/04/12 07:55:32;;;;;;;6.65;5.97;;;35.60;20.00;;;;;;6323173;28;20257;-63
2022/04/12 07:58:35;;;;;;;5.90;5.47;;;36.00;19.70;;;;;;6324290;28;20233;-63
2022/04/12 08:01:38;;;;;;;7.10;6.20;;;36.50;19.20;;;;;;6324513;28;20225;-63
2022/04/12 08:04:44;;;;;;;6.32;5.82;;;37.20;18.70;;;;;;6324306;28;20326;-62
2022/04/12 08:07:48;;;;;;;6.18;5.72;;;37.90;18.40;;;;;;6324404;28;20232;-62
2022/04/12 08:10:51;;;;;;;6.03;5.47;;;37.50;18.00;;;;;;6322866;28;20229;-63
2022/04/12 08:13:54;;;;;;;5.63;5.15;;;37.10;18.30;;;;;;6322544;28;20240;-63
2022/04/12 08:16:57;;;;;;;5.90;5.30;;;38.20;18.10;;;;;;6322771;28;20234;-63
2022/04/12 08:20:02;;;;;;;5.25;4.85;;;39.40;17.50;;;;;;6322400;28;20272;-63
2022/04/12 08:23:05;;;;;;;5.63;5.13;;;40.40;16.60;;;;;;6319881;28;20515;-63
2022/04/12 08:26:08;;;;;;;5.95;5.45;;;40.60;16.00;;;;;;6323087;28;20719;-63
2022/04/12 08:29:12;;;;;;;5.53;5.03;;;40.50;16.30;;;;;;6322401;28;20236;-64
2022/04/12 08:32:16;;;;;;;6.45;5.75;;;40.60;16.10;;;;;;6324776;28;20240;-63
2022/04/12 08:35:21;;;;;;;7.30;5.57;;;41.10;16.00;;;;;;6330371;28;20232;-63
2022/04/12 08:38:24;;;;;;;6.53;5.93;;;41.30;16.10;;;;;;6331545;28;20676;-63
2022/04/12 08:41:27;;;;;;;6.60;6.00;;;41.80;15.30;;;;;;6324755;28;20641;-63
2022/04/12 08:44:32;;;;;;;6.38;5.80;;;41.70;15.30;;;;;;6327534;28;20218;-63
2022/04/12 08:47:36;;;;;;;5.80;5.30;;;40.70;15.40;;;;;;6329446;28;20203;-63
2022/04/12 08:50:41;;;;;;;6.18;5.65;;;41.30;15.50;;;;;;6328813;28;20206;-64
2022/04/12 08:53:46;;;;;;;5.90;5.30;;;41.70;15.00;;;;;;6327288;28;20588;-64
2022/04/12 08:56:51;;;;;;;6.00;5.50;;;42.50;15.00;;;;;;6327663;28;20240;-63
2022/04/12 08:59:54;;;;;;;6.38;5.63;;;42.60;15.20;;;;;;6324473;28;20232;-64
2022/04/12 09:02:59;;;;;;;6.38;5.78;;;42.80;14.70;;;;;;6327348;28;20235;-63
2022/04/12 09:06:05;;;;;;;7.25;5.82;;;43.20;14.40;;;;;;6326463;28;20225;-63
2022/04/12 09:09:12;;;;;;;6.25;5.80;;;42.30;14.40;;;;;;6324757;28;20221;-63
2022/04/12 09:12:17;;;;;;;5.95;5.53;;;42.80;14.50;;;;;;6327624;28;20531;-63
2022/04/12 09:15:23;;;;;;;5.28;4.90;;;43.10;14.40;;;;;;6322307;28;20245;-64
2022/04/12 09:18:34;;;;;;;6.65;6.15;;;43.50;14.20;;;;;;6327409;28;20297;-62
2022/04/12 09:21:45;;;;;;;5.63;5.13;;;43.70;14.00;;;;;;6327241;28;20241;-62
2022/04/12 09:24:50;;;;;;;5.15;4.85;;;44.20;14.00;;;;;;6327505;28;20240;-61
2022/04/12 09:27:55;;;;;;;5.85;5.35;;;44.60;13.40;;;;;;6327481;28;20527;-62
2022/04/12 09:31:00;;;;;;;5.80;5.32;;;43.50;13.50;;;;;;6327730;28;20225;-62
2022/04/12 09:34:03;;;;;;;5.38;5.00;;;43.20;13.80;;;;;;6327862;28;20229;-62
2022/04/12 09:37:22;;;;;;;5.63;5.10;;;42.60;14.40;;;;;;6327078;28;20236;-61
2022/04/12 09:40:26;;;;;;;5.50;5.10;;;41.30;14.80;;;;;;6327739;28;20238;-61
2022/04/12 09:43:30;;;;;;;5.80;5.40;;;39.90;15.20;;;;;;6326805;28;20234;-62
2022/04/12 09:46:34;;;;;;;5.80;5.43;;;38.50;16.00;;;;;;6322817;28;20564;-62
2022/04/12 09:49:44;;;;;;;6.25;5.75;;;36.90;16.90;;;;;;6326925;28;20708;-61
2022/04/12 09:52:55;;;;;;;6.65;6.05;;;35.20;17.80;;;;;;6327309;28;20233;-61
2022/04/12 09:55:58;;;;;;;6.82;5.53;;;33.10;19.20;;;;;;6327646;28;20241;-63
2022/04/12 09:59:03;;;;;;;6.93;6.07;;;30.70;21.00;;;;;;6327118;28;20237;-61
2022/04/12 10:02:07;;;;;;;6.13;5.60;;;29.40;22.20;;;;;;6326860;28;20583;-62
2022/04/12 10:05:10;;;;;;;6.20;5.60;;;28.00;23.60;;;;;;6326823;28;20255;-60
2022/04/12 10:08:18;;;;;;;5.90;5.30;;;26.70;25.00;;;;;;6326494;28;20233;-60
2022/04/12 10:11:21;;;;;;;7.00;5.10;;;25.40;26.20;;;;;;6318209;28;20229;-60
2022/04/12 10:14:25;;;;;;;6.07;5.57;;;24.80;27.40;;;;;;6326672;28;20670;-61
2022/04/12 10:17:28;;;;;;;6.40;5.80;;;24.00;27.80;;;;;;6325513;28;20226;-61
2022/04/12 10:20:31;;;;;;;6.57;5.90;;;23.30;28.60;;;;;;6323629;28;20194;-61
2022/04/12 10:23:36;;;;;;;6.80;6.20;;;22.20;29.70;;;;;;6323549;28;20829;-61
2022/04/12 10:26:41;;;;;;;6.67;6.07;;;21.40;31.00;;;;;;6325873;28;20206;-61
2022/04/12 10:30:21;;;;;;;6.60;6.00;;;21.20;32.00;;;;;;6325905;28;20306;-61
2022/04/12 10:33:27;;;;;;;5.07;4.63;;;21.40;32.00;;;;;;6327683;28;20230;-62
2022/04/12 10:37:03;;;;;;;6.87;5.30;;;21.50;31.90;;;;;;6327522;28;20310;-62
2022/04/12 10:40:29;;;;;;;7.13;5.30;;;21.40;31.60;;;;;;6324896;28;20362;-62
2022/04/12 10:43:38;;;;;;;6.20;5.07;;;21.20;32.00;;;;;;6324001;28;20685;-62
2022/04/12 10:46:49;;;;;;;6.60;4.87;;;20.70;32.40;;;;;;6323181;28;20241;-62
2022/04/12 10:49:58;;;;;;;7.07;4.53;;;20.40;32.50;;;;;;6324130;28;20257;-62
2022/04/12 10:53:01;;;;;;;5.30;4.80;;;20.70;33.60;;;;;;6324253;28;20233;-62
2022/04/12 10:56:06;;;;;;;4.87;4.47;;;20.50;32.90;;;;;;6324665;28;20234;-62
2022/04/12 10:59:47;;;;;;;4.60;4.30;;;20.60;32.50;;;;;;6326120;28;20226;-62
2022/04/12 11:02:55;;;;;;;4.77;4.40;;;21.00;32.60;;;;;;6325794;28;20226;-60
2022/04/12 11:06:00;;;;;;;4.80;4.40;;;21.10;32.40;;;;;;6325517;28;20858;-63
2022/04/12 11:09:11;;;;;;;6.30;5.70;;;21.00;32.60;;;;;;6325043;28;20227;-60
2022/04/12 11:12:17;;;;;;;6.07;5.47;;;20.90;33.10;;;;;;6327133;28;20231;-63
2022/04/12 11:15:22;;;;;;;5.60;5.10;;;21.00;33.30;;;;;;6326834;28;20241;-62
2022/04/12 11:18:25;;;;;;;4.63;4.23;;;21.20;32.70;;;;;;6326470;28;20230;-61
2022/04/12 11:21:59;;;;;;;6.00;4.60;;;21.10;32.30;;;;;;6327163;28;20234;-62
2022/04/12 11:25:15;;;;;;;5.00;4.33;;;20.70;32.60;;;;;;6326356;28;20219;-62
2022/04/12 11:28:24;;;;;;;5.67;5.00;;;20.70;32.90;;;;;;6325358;28;20253;-62
2022/04/12 11:31:27;;;;;;;5.07;4.63;;;20.80;33.40;;;;;;6324743;28;20219;-62
2022/04/12 11:34:31;;;;;;;4.80;4.40;;;21.10;33.80;;;;;;6324906;28;20240;-62
2022/04/12 11:37:39;;;;;;;4.53;3.33;;;21.30;32.40;;;;;;6324676;28;20229;-60
2022/04/12 11:40:44;;;;;;;5.20;4.80;;;21.60;32.40;;;;;;6324669;28;20231;-61
2022/04/12 11:43:48;;;;;;;4.63;4.13;;;21.20;32.00;;;;;;6324422;28;20226;-61
2022/04/12 11:46:58;;;;;;;5.30;4.80;;;21.20;32.90;;;;;;6324424;28;20241;-61
2022/04/12 11:50:02;;;;;;;4.50;4.10;;;21.70;32.40;;;;;;6324321;28;20234;-61
2022/04/12 11:53:06;;;;;;;5.90;4.17;;;21.90;32.00;;;;;;6324221;28;20677;-62
2022/04/12 11:56:12;;;;;;;6.30;4.73;;;21.90;31.90;;;;;;6314284;28;20223;-60
2022/04/12 11:59:17;;;;;;;6.53;4.43;;;21.80;31.70;;;;;;6319977;28;20230;-59
2022/04/12 12:02:21;;;;;;;5.07;4.67;;;21.80;32.20;;;;;;6324109;28;20237;-60
2022/04/12 12:05:24;;;;;;;4.53;4.10;;;21.80;32.00;;;;;;6323935;28;20250;-61
2022/04/12 12:08:28;;;;;;;4.10;3.70;;;22.00;32.00;;;;;;6324029;28;20562;-60
2022/04/12 12:11:31;;;;;;;5.00;3.70;;;21.60;31.90;;;;;;6315730;28;20237;-60
2022/04/12 12:14:37;;;;;;;5.07;4.60;;;21.60;31.50;;;;;;6323985;28;20226;-60
2022/04/12 12:17:41;;;;;;;4.27;3.87;;;21.50;31.00;;;;;;6323982;28;20217;-61
2022/04/12 12:20:44;;;;;;;3.90;3.60;;;21.70;31.20;;;;;;6324098;28;20622;-61
2022/04/12 12:23:47;;;;;;;5.00;3.50;;;22.00;31.10;;;;;;6323940;28;20245;-59
2022/04/12 12:26:54;;;;;;;4.40;3.90;;;21.90;31.00;;;;;;6323660;28;20521;-61
2022/04/12 12:30:06;;;;;;;4.07;3.77;;;21.80;30.70;;;;;;6321951;28;20709;-64
2022/04/12 12:33:09;;;;;;;3.43;3.23;;;21.90;30.80;;;;;;6322775;28;20246;-62
2022/04/12 12:36:19;;;;;;;4.70;3.93;;;22.10;30.70;;;;;;6322881;28;20539;-62
2022/04/12 12:39:22;;;;;;;5.27;3.90;;;22.20;30.50;;;;;;6322757;28;20549;-62
2022/04/12 12:42:25;;;;;;;5.03;3.87;;;22.30;30.00;;;;;;6323641;28;20230;-64
2022/04/12 12:45:30;;;;;;;5.20;4.70;;;22.30;30.00;;;;;;6324812;28;20238;-63
2022/04/12 12:48:33;;;;;;;4.57;4.17;;;21.80;29.80;;;;;;6323851;28;20222;-61
2022/04/12 12:51:37;;;;;;;4.63;4.17;;;21.40;30.10;;;;;;6324074;28;20237;-63
2022/04/12 12:54:41;;;;;;;3.83;3.27;;;21.30;30.70;;;;;;6323346;28;20255;-62
2022/04/12 12:57:46;;;;;;;3.90;3.57;;;21.60;30.50;;;;;;6318995;28;20622;-62
2022/04/12 13:01:01;;;;;;;4.40;3.10;;;21.80;30.30;;;;;;6323438;28;20234;-63
2022/04/12 13:04:04;;;;;;;4.40;3.70;;;22.10;30.20;;;;;;6323454;28;20234;-63
2022/04/12 13:07:09;;;;;;;4.80;4.23;;;22.10;30.00;;;;;;6323497;28;20222;-63
2022/04/12 13:10:14;;;;;;;5.03;3.40;;;22.00;29.80;;;;;;6323375;28;20234;-63
2022/04/12 13:13:17;;;;;;;5.73;4.00;;;22.00;29.80;;;;;;6323802;28;20577;-64
2022/04/12 13:16:22;;;;;;;5.10;4.60;;;21.80;30.00;;;;;;6324605;28;20227;-62
2022/04/12 13:19:27;;;;;;;4.17;3.87;;;21.90;30.20;;;;;;6330846;28;20234;-61
2022/04/12 13:22:30;;;;;;;3.93;3.47;;;21.90;30.00;;;;;;6330338;28;20619;-62
2022/04/12 13:25:33;;;;;;;4.30;3.40;;;22.00;30.20;;;;;;6326408;28;20226;-62
2022/04/12 13:28:36;;;;;;;4.23;3.83;;;22.10;30.00;;;;;;6326069;28;20241;-59
2022/04/12 13:31:41;;;;;;;3.90;3.50;;;22.30;29.70;;;;;;6326084;28;20237;-60
2022/04/12 13:34:44;;;;;;;3.93;3.43;;;21.90;30.20;;;;;;6325727;28;20662;-61
2022/04/12 13:37:48;;;;;;;4.30;4.00;;;21.70;30.30;;;;;;6327067;28;20555;-60
2022/04/12 13:40:53;;;;;;;4.30;3.90;;;21.40;30.80;;;;;;6327461;28;20573;-60
2022/04/12 13:43:57;;;;;;;4.63;4.23;;;21.20;31.00;;;;;;6332661;28;20234;-60
2022/04/12 13:47:22;;;;;;;5.00;4.57;;;21.20;32.40;;;;;;6327085;28;20252;-60
2022/04/12 13:50:26;;;;;;;6.47;5.43;;;20.80;32.20;;;;;;6326873;28;20235;-61
2022/04/12 13:53:29;;;;;;;6.27;5.67;;;20.40;33.00;;;;;;6326546;28;20234;-61
2022/04/12 13:56:32;;;;;;;6.00;5.40;;;20.20;33.50;;;;;;6326874;28;20229;-64
2022/04/12 13:59:36;;;;;;;4.77;4.37;;;19.90;33.90;;;;;;6326812;28;20522;-63
2022/04/12 14:02:41;;;;;;;4.93;4.23;;;20.00;34.00;;;;;;6327949;28;20564;-65
2022/04/12 14:05:46;;;;;;;5.10;4.60;;;20.00;34.00;;;;;;6331543;28;20235;-62
2022/04/12 14:08:49;;;;;;;6.10;5.50;;;20.30;33.50;;;;;;6332832;28;20207;-62
2022/04/12 14:11:52;;;;;;;6.53;5.90;;;20.40;33.90;;;;;;6328830;28;20233;-65
2022/04/12 14:14:55;;;;;;;6.83;6.13;;;20.50;33.80;;;;;;6326718;28;20372;-61
2022/04/12 14:18:00;;;;;;;6.70;6.00;;;20.40;33.80;;;;;;6326387;28;20234;-62
2022/04/12 14:21:12;;;;;;;7.77;6.93;;;20.40;33.80;;;;;;6326547;28;20339;-58
2022/04/12 14:24:20;;;;;;;5.53;5.10;;;20.20;34.50;;;;;;6326219;28;20238;-58
2022/04/12 14:27:24;;;;;;;6.43;5.90;;;19.90;34.90;;;;;;6326279;28;20237;-62
2022/04/12 14:30:27;;;;;;;7.90;6.00;;;19.90;35.00;;;;;;6326501;28;20218;-60
2022/04/12 14:33:32;;;;;;;7.37;6.20;;;20.10;34.80;;;;;;6326616;28;20227;-63
2022/04/12 14:36:35;;;;;;;6.43;5.77;;;20.20;34.70;;;;;;6326198;28;20670;-60
2022/04/12 14:39:38;;;;;;;7.10;6.40;;;20.00;35.30;;;;;;6326232;28;20226;-58
2022/04/12 14:42:43;;;;;;;8.37;6.50;;;19.70;35.40;;;;;;6325978;28;20310;-58
2022/04/12 14:45:46;;;;;;;7.10;6.30;;;19.80;35.60;;;;;;6325853;28;20230;-59
2022/04/12 14:48:50;;;;;;;7.60;6.90;;;19.80;35.40;;;;;;6325575;28;20714;-59
2022/04/12 14:51:54;;;;;;;6.67;6.07;;;19.90;34.30;;;;;;6325658;28;20230;-60
2022/04/12 14:54:57;;;;;;;6.77;6.17;;;20.00;34.90;;;;;;6325899;28;20244;-58
2022/04/12 14:58:00;;;;;;;8.87;6.67;;;20.10;35.00;;;;;;6325900;28;20237;-58
2022/04/12 15:01:04;;;;;;;8.03;7.23;;;20.20;35.30;;;;;;6326005;28;20237;-62
2022/04/12 15:04:08;;;;;;;8.47;7.60;;;20.30;34.30;;;;;;6325673;28;20279;-62
2022/04/12 15:07:12;;;;;;;6.83;6.13;;;20.30;34.40;;;;;;6316498;28;20235;-62
2022/04/12 15:10:15;;;;;;;7.30;6.20;;;20.40;34.70;;;;;;6325836;28;20249;-62
2022/04/12 15:13:18;;;;;;;8.47;6.70;;;20.50;34.70;;;;;;6324012;28;20233;-59
2022/04/12 15:16:21;;;;;;;6.57;5.90;;;20.40;33.90;;;;;;6315396;28;20279;-59
2022/04/12 15:19:26;;;;;;;7.10;6.03;;;20.30;35.00;;;;;;6301098;28;20288;-59
2022/04/12 15:22:29;;;;;;;7.10;6.43;;;20.30;35.40;;;;;;6309898;28;20230;-60
2022/04/12 15:25:32;;;;;;;6.20;5.60;;;20.30;34.90;;;;;;6322877;28;20230;-61
2022/04/12 15:28:35;;;;;;;7.60;6.17;;;20.30;35.10;;;;;;6310365;28;20218;-59
2022/04/12 15:31:38;;;;;;;9.73;6.53;;;20.20;35.10;;;;;;6316700;28;20226;-60
2022/04/12 15:34:43;;;;;;;9.23;6.60;;;20.20;35.10;;;;;;6299389;28;20227;-60
2022/04/12 15:37:49;;;;;;;7.73;7.03;;;20.20;35.00;;;;;;6316621;28;20539;-61
2022/04/12 15:40:52;;;;;;;7.43;6.73;;;20.10;35.00;;;;;;6311410;28;20230;-60
2022/04/12 15:43:55;;;;;;;7.27;6.50;;;19.90;35.70;;;;;;6307912;28;20241;-60
2022/04/12 15:46:58;;;;;;;5.97;5.43;;;19.80;35.60;;;;;;6310234;28;20223;-62
2022/04/12 15:50:03;;;;;;;6.67;5.93;;;19.90;35.70;;;;;;6315407;28;20223;-61
2022/04/12 15:53:07;;;;;;;5.80;5.20;;;19.90;35.70;;;;;;6312910;28;20237;-62
2022/04/12 15:56:12;;;;;;;5.77;5.17;;;20.00;35.80;;;;;;6306609;28;20785;-63
2022/04/12 15:59:15;;;;;;;8.30;5.80;;;20.10;35.50;;;;;;6323462;28;20233;-57
2022/04/12 16:02:18;;;;;;;6.17;5.57;;;19.80;36.20;;;;;;6306926;28;20231;-58
2022/04/12 16:05:24;;;;;;;5.30;4.80;;;19.70;36.50;;;;;;6307787;28;20218;-58
2022/04/12 16:08:27;;;;;;;6.30;5.53;;;19.60;37.20;;;;;;6308653;28;20223;-58